Time;durP1;ratioP1;P1;durP2;ratioP2;P2;SDS_P1;SDS_P2;PMS_P1;PMS_P2;Temp;Humidity;BMP_temperature;BMP_pressure;BME280_temperature;BME280_humidity;BME280_pressure;Samples;Min_cycle;Max_cycle;Signal;HPM_P1;HPM_P2
2023/10/29 00:01:35;;;;;;;0.10;0.10;;;19.50;45.50;;;;;;5053660;28;20199;-50
2023/10/29 00:04:06;;;;;;;0.10;0.10;;;19.50;45.50;;;;;;5054160;28;20740;-52
2023/10/29 00:06:39;;;;;;;0.10;0.10;;;19.50;45.40;;;;;;5053950;28;20651;-52
2023/10/29 00:09:09;;;;;;;0.10;0.10;;;19.50;45.40;;;;;;5067026;28;20223;-51
2023/10/29 00:11:40;;;;;;;0.10;0.10;;;19.60;45.50;;;;;;5052400;28;20656;-51
2023/10/29 00:14:11;;;;;;;0.10;0.10;;;19.50;45.50;;;;;;5053270;28;20300;-53
2023/10/29 00:16:42;;;;;;;0.10;0.10;;;19.60;45.50;;;;;;5060877;28;20217;-52
2023/10/29 00:19:12;;;;;;;0.10;0.10;;;19.60;45.50;;;;;;5072933;28;20231;-48
2023/10/29 00:21:45;;;;;;;0.10;0.10;;;19.70;45.50;;;;;;5060583;28;20198;-50
2023/10/29 00:24:15;;;;;;;0.10;0.10;;;19.70;45.50;;;;;;5069174;22;20242;-49
2023/10/29 00:26:46;;;;;;;0.10;0.10;;;19.70;45.50;;;;;;5052749;28;20207;-50
2023/10/29 00:29:16;;;;;;;0.10;0.10;;;19.70;45.50;;;;;;5051273;28;20718;-46
2023/10/29 00:31:47;;;;;;;0.10;0.10;;;19.70;45.60;;;;;;5032544;28;20196;-50
2023/10/29 00:34:18;;;;;;;0.00;0.00;;;19.70;45.60;;;;;;5035849;28;20200;-48
2023/10/29 00:36:50;;;;;;;0.10;0.10;;;19.70;45.60;;;;;;5044235;28;20188;-45
2023/10/29 00:39:21;;;;;;;0.00;0.00;;;19.80;45.70;;;;;;5041945;28;20232;-46
2023/10/29 00:41:52;;;;;;;0.03;0.03;;;19.80;45.80;;;;;;5032855;28;20192;-47
2023/10/29 00:44:22;;;;;;;0.10;0.10;;;19.80;45.70;;;;;;5033409;28;20204;-45
2023/10/29 00:46:53;;;;;;;0.10;0.10;;;19.80;45.70;;;;;;5033492;28;20227;-47
2023/10/29 00:49:24;;;;;;;0.08;0.08;;;19.90;45.80;;;;;;5033723;28;20191;-48
2023/10/29 00:51:57;;;;;;;0.10;0.10;;;19.90;45.80;;;;;;5033177;28;20657;-45
2023/10/29 00:54:27;;;;;;;0.10;0.10;;;19.90;45.80;;;;;;5033569;28;20196;-43
2023/10/29 00:56:58;;;;;;;0.00;0.00;;;19.90;45.80;;;;;;5032961;28;20204;-45
2023/10/29 00:59:32;;;;;;;0.00;0.00;;;19.90;45.80;;;;;;5033112;28;20246;-47
2023/10/29 01:02:03;;;;;;;0.10;0.10;;;19.90;45.70;;;;;;5033246;28;20199;-50
2023/10/29 01:04:35;;;;;;;0.10;0.10;;;20.00;45.80;;;;;;5032962;28;20200;-48
2023/10/29 01:07:07;;;;;;;0.10;0.10;;;20.00;45.80;;;;;;5033020;28;20283;-47
2023/10/29 01:09:40;;;;;;;0.10;0.10;;;20.00;45.80;;;;;;5032878;28;20291;-46
2023/10/29 01:12:18;;;;;;;0.10;0.10;;;20.00;45.70;;;;;;5032924;28;20199;-48
2023/10/29 01:14:49;;;;;;;0.08;0.08;;;20.00;45.80;;;;;;5033007;28;20262;-48
2023/10/29 01:17:20;;;;;;;0.10;0.10;;;20.00;45.80;;;;;;5033382;28;20681;-44
2023/10/29 01:19:51;;;;;;;0.10;0.10;;;20.10;45.80;;;;;;5032444;28;20224;-47
2023/10/29 01:22:23;;;;;;;0.10;0.10;;;20.10;45.80;;;;;;5032654;28;20255;-46
2023/10/29 01:24:54;;;;;;;0.10;0.10;;;20.10;45.80;;;;;;5064287;22;20254;-52
2023/10/29 01:27:26;;;;;;;0.00;0.00;;;20.10;45.80;;;;;;5052266;28;20593;-50
2023/10/29 01:29:57;;;;;;;0.10;0.10;;;20.10;45.70;;;;;;5052518;28;20199;-49
2023/10/29 01:32:28;;;;;;;0.00;0.00;;;20.10;45.70;;;;;;5051879;28;20202;-50
2023/10/29 01:34:58;;;;;;;0.10;0.10;;;20.20;45.70;;;;;;5050137;28;20195;-47
2023/10/29 01:37:31;;;;;;;0.10;0.10;;;20.20;45.70;;;;;;5052204;28;20238;-53
2023/10/29 01:40:01;;;;;;;0.10;0.10;;;20.20;45.70;;;;;;5052776;28;20683;-48
2023/10/29 01:42:32;;;;;;;0.00;0.00;;;20.20;45.70;;;;;;5052289;28;20196;-56
2023/10/29 01:45:03;;;;;;;0.10;0.10;;;20.20;45.60;;;;;;5051877;28;20659;-54
2023/10/29 01:47:34;;;;;;;0.10;0.10;;;20.20;45.60;;;;;;5051857;28;20223;-52
2023/10/29 01:50:05;;;;;;;0.10;0.10;;;20.20;45.60;;;;;;5051804;28;20204;-55
2023/10/29 01:52:40;;;;;;;0.10;0.10;;;20.30;45.60;;;;;;5052117;28;20195;-55
2023/10/29 01:55:11;;;;;;;0.10;0.10;;;20.30;45.60;;;;;;5052205;28;20242;-52
2023/10/29 01:57:41;;;;;;;0.00;0.00;;;20.30;45.60;;;;;;5052180;28;20689;-52
2023/10/29 02:00:12;;;;;;;0.10;0.10;;;20.30;45.60;;;;;;5052160;28;20242;-50
2023/10/29 02:02:44;;;;;;;0.03;0.03;;;20.30;45.60;;;;;;5051981;28;20199;-50
2023/10/29 02:05:15;;;;;;;0.10;0.10;;;20.30;45.60;;;;;;5052127;28;20195;-47
2023/10/29 02:07:47;;;;;;;0.00;0.00;;;20.30;45.60;;;;;;5052325;28;20298;-49
2023/10/29 02:10:18;;;;;;;0.10;0.10;;;20.30;45.60;;;;;;5051882;28;20206;-52
2023/10/29 02:12:49;;;;;;;0.10;0.10;;;20.30;45.50;;;;;;5052179;28;20277;-55
2023/10/29 02:15:20;;;;;;;0.10;0.10;;;20.40;45.60;;;;;;5048376;28;20195;-55
2023/10/29 02:17:50;;;;;;;0.10;0.10;;;20.40;45.50;;;;;;5051728;28;20237;-52
2023/10/29 02:20:21;;;;;;;0.10;0.10;;;20.40;45.50;;;;;;5051436;28;20234;-47
2023/10/29 02:25:33;;;;;;;0.10;0.10;;;20.40;45.50;;;;;;5010069;28;20290;-50
2023/10/29 02:28:04;;;;;;;0.10;0.10;;;20.40;45.40;;;;;;5011836;28;20701;-48
2023/10/29 02:30:35;;;;;;;0.00;0.00;;;20.40;45.40;;;;;;5014637;28;20189;-47
2023/10/29 02:33:05;;;;;;;0.10;0.10;;;20.50;45.40;;;;;;5012136;28;20224;-45
2023/10/29 02:35:36;;;;;;;0.10;0.10;;;20.50;45.50;;;;;;5011497;28;20208;-46
2023/10/29 02:38:07;;;;;;;0.10;0.10;;;20.50;46.10;;;;;;5011601;28;20225;-47
2023/10/29 02:40:40;;;;;;;0.10;0.10;;;20.50;45.50;;;;;;5011635;28;20467;-48
2023/10/29 02:43:10;;;;;;;0.10;0.10;;;20.50;45.60;;;;;;5014131;28;20200;-49
2023/10/29 02:45:41;;;;;;;0.10;0.10;;;20.50;45.50;;;;;;5011772;28;20207;-47
2023/10/29 02:48:12;;;;;;;0.00;0.00;;;20.60;45.50;;;;;;5011791;28;20224;-48
2023/10/29 02:50:43;;;;;;;0.10;0.10;;;20.60;45.60;;;;;;5011734;28;20207;-49
2023/10/29 02:53:14;;;;;;;0.08;0.08;;;20.60;45.50;;;;;;5013591;28;20208;-48
2023/10/29 02:55:46;;;;;;;0.10;0.10;;;20.60;45.50;;;;;;5015256;28;20287;-48
2023/10/29 02:58:17;;;;;;;0.10;0.10;;;20.60;45.50;;;;;;5015038;28;20228;-49
2023/10/29 03:00:47;;;;;;;0.10;0.10;;;20.60;45.50;;;;;;5015297;28;20200;-51
2023/10/29 03:03:18;;;;;;;0.10;0.10;;;20.70;45.50;;;;;;5015448;28;20584;-51
2023/10/29 03:05:49;;;;;;;0.10;0.10;;;20.70;45.50;;;;;;5015656;28;20204;-46
2023/10/29 03:08:19;;;;;;;0.10;0.10;;;20.70;45.50;;;;;;5015469;28;20224;-47
2023/10/29 03:10:52;;;;;;;0.10;0.10;;;20.70;45.50;;;;;;5015446;28;20200;-48
2023/10/29 03:13:22;;;;;;;0.00;0.00;;;20.70;45.50;;;;;;5015663;28;20204;-48
2023/10/29 03:15:53;;;;;;;0.03;0.03;;;20.70;45.50;;;;;;5015647;28;20232;-49
2023/10/29 03:18:25;;;;;;;0.00;0.00;;;20.70;45.50;;;;;;5015303;28;20303;-47
2023/10/29 03:20:55;;;;;;;0.00;0.00;;;20.80;45.60;;;;;;5015516;28;20196;-47
2023/10/29 03:23:26;;;;;;;0.10;0.10;;;20.80;45.60;;;;;;5015706;28;20200;-47
2023/10/29 03:26:04;;;;;;;0.10;0.10;;;20.80;45.60;;;;;;5015206;28;20223;-47
2023/10/29 03:28:35;;;;;;;0.10;0.10;;;20.80;45.60;;;;;;5014534;28;20633;-49
2023/10/29 03:31:12;;;;;;;0.10;0.10;;;20.90;45.60;;;;;;5015056;28;20193;-47
2023/10/29 03:33:42;;;;;;;0.10;0.10;;;20.90;45.60;;;;;;5015032;28;20201;-48
2023/10/29 03:36:13;;;;;;;0.10;0.10;;;20.90;45.60;;;;;;5015099;28;20205;-46
2023/10/29 03:38:44;;;;;;;0.00;0.00;;;20.90;45.50;;;;;;5014937;28;20227;-47
2023/10/29 03:41:24;;;;;;;0.03;0.03;;;20.90;45.40;;;;;;5015230;28;20536;-47
2023/10/29 03:43:55;;;;;;;0.00;0.00;;;21.00;45.50;;;;;;5014986;28;20542;-47
2023/10/29 03:46:25;;;;;;;0.10;0.10;;;21.00;45.40;;;;;;5014962;28;20201;-48
2023/10/29 03:48:56;;;;;;;0.10;0.10;;;21.00;45.40;;;;;;5014888;28;20232;-50
2023/10/29 03:51:28;;;;;;;0.10;0.10;;;21.00;45.40;;;;;;5014747;28;20209;-50
2023/10/29 03:53:59;;;;;;;0.10;0.10;;;21.00;45.40;;;;;;5014754;28;20229;-50
2023/10/29 03:56:31;;;;;;;0.10;0.10;;;21.10;45.50;;;;;;5014695;28;20201;-48
2023/10/29 03:59:02;;;;;;;0.00;0.00;;;21.10;45.40;;;;;;5014402;28;20244;-49
2023/10/29 04:01:32;;;;;;;0.10;0.10;;;21.10;45.40;;;;;;5014228;28;20208;-46
2023/10/29 04:04:05;;;;;;;0.00;0.00;;;21.10;45.30;;;;;;5013069;28;20193;-47
2023/10/29 04:06:35;;;;;;;0.10;0.10;;;21.20;45.40;;;;;;5014157;28;20235;-50
2023/10/29 04:09:06;;;;;;;0.10;0.10;;;21.20;45.30;;;;;;5022249;28;20229;-48
2023/10/29 04:11:39;;;;;;;0.05;0.05;;;21.10;45.20;;;;;;5011543;28;20212;-50
2023/10/29 04:14:09;;;;;;;0.00;0.00;;;21.10;45.20;;;;;;5007908;28;20472;-48
2023/10/29 04:16:40;;;;;;;0.10;0.10;;;21.10;45.30;;;;;;5011116;28;20204;-49
2023/10/29 04:19:10;;;;;;;0.00;0.00;;;21.10;45.30;;;;;;5012388;28;20700;-48
2023/10/29 04:21:41;;;;;;;0.00;0.00;;;21.10;45.30;;;;;;5013788;28;20207;-47
2023/10/29 04:24:12;;;;;;;0.10;0.10;;;21.20;45.40;;;;;;5013734;28;20201;-50
2023/10/29 04:26:45;;;;;;;0.10;0.10;;;21.20;45.40;;;;;;5013883;28;20204;-47
2023/10/29 04:29:16;;;;;;;0.00;0.00;;;21.20;45.40;;;;;;5015426;28;20273;-50
2023/10/29 04:31:47;;;;;;;0.10;0.10;;;21.20;45.40;;;;;;5014273;28;20203;-50
2023/10/29 04:34:18;;;;;;;0.10;0.10;;;21.20;45.40;;;;;;5011296;28;20244;-51
2023/10/29 04:36:51;;;;;;;0.10;0.10;;;21.20;45.40;;;;;;5013582;28;20212;-51
2023/10/29 04:39:22;;;;;;;0.00;0.00;;;21.20;45.30;;;;;;5015832;28;20304;-50
2023/10/29 04:41:55;;;;;;;0.10;0.10;;;21.20;45.30;;;;;;5002390;28;20204;-50
2023/10/29 04:44:27;;;;;;;0.20;0.20;;;21.30;45.30;;;;;;5009239;28;20189;-47
2023/10/29 04:46:57;;;;;;;0.10;0.10;;;21.30;45.30;;;;;;4993522;28;20475;-49
2023/10/29 04:49:28;;;;;;;0.10;0.10;;;21.30;45.30;;;;;;4993579;28;20661;-47
2023/10/29 04:51:59;;;;;;;0.10;0.10;;;21.30;45.30;;;;;;4993485;28;20734;-52
2023/10/29 04:54:29;;;;;;;0.10;0.10;;;21.30;45.30;;;;;;5003923;28;20201;-51
2023/10/29 04:57:02;;;;;;;0.10;0.10;;;21.40;45.30;;;;;;4993543;28;20210;-48
2023/10/29 04:59:33;;;;;;;0.08;0.08;;;21.40;45.30;;;;;;5009009;28;20221;-54
2023/10/29 05:02:05;;;;;;;0.10;0.10;;;21.40;45.20;;;;;;5012233;28;20547;-50
2023/10/29 05:04:35;;;;;;;0.00;0.00;;;21.40;45.20;;;;;;5012218;28;20375;-51
2023/10/29 05:07:07;;;;;;;0.10;0.10;;;21.40;45.20;;;;;;5008240;28;20196;-50
2023/10/29 05:09:37;;;;;;;0.10;0.10;;;21.50;45.20;;;;;;5012115;28;20312;-50
2023/10/29 05:12:10;;;;;;;0.10;0.10;;;21.50;45.20;;;;;;5012484;28;20192;-50
2023/10/29 05:14:41;;;;;;;0.10;0.10;;;21.50;45.20;;;;;;5010752;28;20199;-50
2023/10/29 05:17:12;;;;;;;0.00;0.00;;;21.50;45.10;;;;;;5008639;28;20196;-50
2023/10/29 05:19:43;;;;;;;0.08;0.08;;;21.50;45.10;;;;;;4996612;28;20217;-53
2023/10/29 05:22:14;;;;;;;0.10;0.10;;;21.50;45.00;;;;;;4992644;28;20197;-50
2023/10/29 05:24:45;;;;;;;0.10;0.10;;;21.50;45.00;;;;;;4993600;28;20201;-51
2023/10/29 05:27:17;;;;;;;0.10;0.10;;;21.50;45.10;;;;;;4993178;28;20224;-54
2023/10/29 05:29:48;;;;;;;0.00;0.00;;;21.50;45.10;;;;;;5009845;28;20197;-52
2023/10/29 05:32:18;;;;;;;0.00;0.00;;;21.50;45.10;;;;;;5011969;28;20193;-49
2023/10/29 05:34:50;;;;;;;0.00;0.00;;;21.50;45.10;;;;;;5008987;28;20225;-47
2023/10/29 05:37:20;;;;;;;0.03;0.03;;;21.50;45.10;;;;;;4992027;28;20218;-49
2023/10/29 05:39:51;;;;;;;0.00;0.00;;;21.50;45.00;;;;;;4992752;28;20225;-48
2023/10/29 05:42:25;;;;;;;0.00;0.00;;;21.50;45.00;;;;;;4992204;28;20244;-49
2023/10/29 05:44:55;;;;;;;0.00;0.00;;;21.50;45.00;;;;;;4995617;28;20284;-46
2023/10/29 05:47:26;;;;;;;0.00;0.00;;;21.50;44.90;;;;;;5002245;28;20220;-48
2023/10/29 05:49:58;;;;;;;0.03;0.03;;;21.50;44.90;;;;;;5007917;28;20240;-50
2023/10/29 05:52:28;;;;;;;0.00;0.00;;;21.50;44.90;;;;;;4992790;28;20209;-49
2023/10/29 05:54:59;;;;;;;0.00;0.00;;;21.50;44.80;;;;;;4991579;28;20708;-52
2023/10/29 05:57:31;;;;;;;0.10;0.10;;;21.50;44.80;;;;;;5001315;28;20699;-51
2023/10/29 06:00:02;;;;;;;0.00;0.00;;;21.50;44.80;;;;;;5007853;28;20728;-49
2023/10/29 06:02:33;;;;;;;0.00;0.00;;;21.50;44.80;;;;;;4992337;28;20204;-47
2023/10/29 06:05:04;;;;;;;0.00;0.00;;;21.50;44.80;;;;;;4992128;28;20546;-55
2023/10/29 06:07:36;;;;;;;0.00;0.00;;;21.50;44.80;;;;;;5004711;28;20229;-54
2023/10/29 06:10:07;;;;;;;0.10;0.10;;;21.50;44.80;;;;;;5012252;28;20192;-44
2023/10/29 06:12:40;;;;;;;0.00;0.00;;;21.50;44.80;;;;;;5012609;28;20200;-56
2023/10/29 06:15:13;;;;;;;0.00;0.00;;;21.50;44.90;;;;;;5014976;28;20201;-53
2023/10/29 06:17:44;;;;;;;0.08;0.08;;;21.50;44.80;;;;;;5011875;28;20216;-54
2023/10/29 06:20:17;;;;;;;0.00;0.00;;;21.50;44.90;;;;;;5014172;28;20216;-54
2023/10/29 06:22:48;;;;;;;0.00;0.00;;;21.50;44.90;;;;;;5011530;28;20249;-54
2023/10/29 06:25:19;;;;;;;0.00;0.00;;;21.50;44.90;;;;;;5058446;22;20752;-59
2023/10/29 06:27:51;;;;;;;0.10;0.10;;;21.50;44.90;;;;;;5050488;28;20691;-60
2023/10/29 06:30:22;;;;;;;0.03;0.03;;;21.50;44.80;;;;;;5050802;28;20199;-59
2023/10/29 06:32:52;;;;;;;0.10;0.10;;;21.50;44.80;;;;;;5051200;28;20559;-60
2023/10/29 06:35:23;;;;;;;0.10;0.10;;;21.50;44.80;;;;;;5051160;28;20202;-60
2023/10/29 06:37:54;;;;;;;0.10;0.10;;;21.50;44.80;;;;;;5051187;28;20717;-59
2023/10/29 06:40:26;;;;;;;0.10;0.10;;;21.50;45.30;;;;;;5053975;28;20268;-60
2023/10/29 06:42:58;;;;;;;0.10;0.10;;;21.50;44.70;;;;;;5051381;28;20637;-58
2023/10/29 06:45:29;;;;;;;0.10;0.10;;;21.50;44.70;;;;;;5050544;28;20237;-59
2023/10/29 06:48:00;;;;;;;0.03;0.03;;;21.50;44.70;;;;;;5050734;28;20226;-59
2023/10/29 06:50:30;;;;;;;0.10;0.10;;;21.50;44.70;;;;;;5051332;28;20195;-58
2023/10/29 06:53:02;;;;;;;0.10;0.10;;;21.50;44.70;;;;;;5051379;28;20199;-59
2023/10/29 06:55:32;;;;;;;0.10;0.10;;;21.50;44.70;;;;;;5051191;28;20233;-58
2023/10/29 06:58:05;;;;;;;0.10;0.10;;;21.50;44.70;;;;;;5051088;28;20219;-59
2023/10/29 07:00:36;;;;;;;0.10;0.10;;;21.50;44.80;;;;;;5050625;28;20223;-59
2023/10/29 07:03:07;;;;;;;0.00;0.00;;;21.40;44.70;;;;;;5050967;28;20203;-60
2023/10/29 07:05:37;;;;;;;0.00;0.00;;;21.40;44.70;;;;;;5051162;28;20655;-57
2023/10/29 07:08:08;;;;;;;0.10;0.10;;;21.40;44.70;;;;;;5051240;28;20274;-53
2023/10/29 07:10:39;;;;;;;0.10;0.10;;;21.40;44.70;;;;;;5051233;28;20542;-60
2023/10/29 07:13:12;;;;;;;0.00;0.00;;;21.40;44.70;;;;;;5051072;28;20203;-60
2023/10/29 07:15:44;;;;;;;0.10;0.10;;;21.40;44.70;;;;;;5050382;28;20199;-58
2023/10/29 07:18:14;;;;;;;0.00;0.00;;;21.40;44.70;;;;;;5050467;28;20219;-57
2023/10/29 07:20:45;;;;;;;0.10;0.10;;;21.40;44.60;;;;;;5050640;28;20224;-57
2023/10/29 07:23:16;;;;;;;0.00;0.00;;;21.40;44.70;;;;;;5051528;28;20192;-59
2023/10/29 07:25:47;;;;;;;0.10;0.10;;;21.30;44.60;;;;;;5050629;28;20215;-60
2023/10/29 07:28:19;;;;;;;0.00;0.00;;;21.30;44.60;;;;;;5050748;28;20765;-59
2023/10/29 07:30:51;;;;;;;0.08;0.08;;;21.30;44.70;;;;;;5050358;28;20751;-56
2023/10/29 07:33:21;;;;;;;0.00;0.00;;;21.30;44.60;;;;;;5050698;28;20199;-59
2023/10/29 07:35:52;;;;;;;0.10;0.10;;;21.30;44.60;;;;;;5050197;28;20203;-60
2023/10/29 07:38:23;;;;;;;0.00;0.00;;;21.20;44.60;;;;;;5051344;28;20215;-59
2023/10/29 07:40:53;;;;;;;0.00;0.00;;;21.20;44.70;;;;;;5054530;28;20227;-59
2023/10/29 07:43:26;;;;;;;0.00;0.00;;;21.20;44.60;;;;;;5054476;28;20682;-57
2023/10/29 07:46:03;;;;;;;0.10;0.10;;;21.20;44.70;;;;;;5053374;28;20226;-58
2023/10/29 07:48:33;;;;;;;0.00;0.00;;;21.20;44.70;;;;;;5053534;28;20226;-59
2023/10/29 07:51:04;;;;;;;0.08;0.08;;;21.20;44.70;;;;;;5054502;28;20200;-59
2023/10/29 07:53:34;;;;;;;0.10;0.10;;;21.10;44.60;;;;;;5054395;28;20203;-54
2023/10/29 07:56:12;;;;;;;0.10;0.10;;;21.10;44.60;;;;;;5054452;28;20202;-59
2023/10/29 07:58:46;;;;;;;0.10;0.10;;;21.10;44.60;;;;;;5053538;28;20682;-59
2023/10/29 08:01:17;;;;;;;0.10;0.10;;;21.10;44.60;;;;;;5054298;28;20690;-57
2023/10/29 08:03:48;;;;;;;0.10;0.10;;;21.10;44.60;;;;;;5054175;28;20652;-59
2023/10/29 08:06:19;;;;;;;0.10;0.10;;;21.00;44.60;;;;;;5054172;28;20525;-61
2023/10/29 08:08:49;;;;;;;0.10;0.10;;;21.00;44.60;;;;;;5042633;28;20224;-59
2023/10/29 08:11:24;;;;;;;0.10;0.10;;;21.00;44.60;;;;;;5033917;28;20204;-58
2023/10/29 08:13:56;;;;;;;0.00;0.00;;;21.00;44.60;;;;;;5041154;28;20196;-59
2023/10/29 08:16:27;;;;;;;0.10;0.10;;;21.00;44.70;;;;;;5052797;28;20205;-54
2023/10/29 08:18:58;;;;;;;0.10;0.10;;;21.00;44.70;;;;;;5044901;28;20243;-55
2023/10/29 08:21:28;;;;;;;0.00;0.00;;;20.90;44.70;;;;;;5055237;28;20220;-52
2023/10/29 08:23:59;;;;;;;0.00;0.00;;;20.90;44.70;;;;;;5055371;23;20234;-45
2023/10/29 08:26:31;;;;;;;0.05;0.05;;;20.90;44.70;;;;;;5053009;28;20206;-48
2023/10/29 08:29:04;;;;;;;0.10;0.10;;;20.90;44.80;;;;;;5033552;28;20220;-53
2023/10/29 08:31:35;;;;;;;0.10;0.10;;;20.90;44.80;;;;;;5016023;28;20230;-49
2023/10/29 08:34:06;;;;;;;0.05;0.05;;;20.80;44.70;;;;;;5051016;28;20191;-50
2023/10/29 08:36:37;;;;;;;0.05;0.05;;;20.80;44.80;;;;;;5047317;28;20200;-52
2023/10/29 08:39:09;;;;;;;0.00;0.00;;;20.80;44.80;;;;;;5048428;28;20285;-52
2023/10/29 08:41:39;;;;;;;0.10;0.10;;;20.80;44.80;;;;;;5052978;28;20254;-52
2023/10/29 08:44:12;;;;;;;0.00;0.00;;;20.80;44.80;;;;;;5033797;28;20655;-52
2023/10/29 08:46:43;;;;;;;0.03;0.03;;;20.80;44.80;;;;;;5032398;28;20203;-47
2023/10/29 08:49:13;;;;;;;0.08;0.08;;;20.70;44.70;;;;;;5032650;28;20243;-51
2023/10/29 08:51:44;;;;;;;0.10;0.10;;;20.70;44.70;;;;;;5031505;28;20199;-46
2023/10/29 08:54:15;;;;;;;0.03;0.03;;;20.70;44.70;;;;;;5032768;28;20203;-52
2023/10/29 08:56:45;;;;;;;0.10;0.10;;;20.70;44.70;;;;;;5032268;28;20200;-50
2023/10/29 08:59:18;;;;;;;0.10;0.10;;;20.70;44.70;;;;;;5032119;28;20209;-46
2023/10/29 09:01:48;;;;;;;0.10;0.10;;;20.70;44.70;;;;;;5030618;28;20514;-54
2023/10/29 09:04:20;;;;;;;0.00;0.00;;;20.70;44.70;;;;;;5031219;28;20189;-50
2023/10/29 09:06:50;;;;;;;0.08;0.08;;;20.60;44.70;;;;;;5032033;28;20196;-52
2023/10/29 09:09:21;;;;;;;0.00;0.00;;;20.60;44.70;;;;;;5032927;28;20197;-52
2023/10/29 09:11:55;;;;;;;0.10;0.10;;;20.60;44.80;;;;;;5031662;28;20203;-44
2023/10/29 09:14:27;;;;;;;0.10;0.10;;;20.60;44.70;;;;;;5032699;28;20192;-47
2023/10/29 09:16:58;;;;;;;0.08;0.08;;;20.60;44.80;;;;;;5031125;28;20208;-50
2023/10/29 09:19:28;;;;;;;0.10;0.10;;;20.50;44.70;;;;;;5031878;28;20196;-51
2023/10/29 09:21:59;;;;;;;0.10;0.10;;;20.50;44.70;;;;;;5032714;28;20220;-56
2023/10/29 09:24:30;;;;;;;0.10;0.10;;;20.50;44.70;;;;;;5056560;22;20227;-55
2023/10/29 09:27:00;;;;;;;0.10;0.10;;;20.50;44.70;;;;;;5052359;28;20204;-56
2023/10/29 09:29:33;;;;;;;0.10;0.10;;;20.50;44.70;;;;;;5046697;28;20196;-54
2023/10/29 09:32:07;;;;;;;0.10;0.10;;;20.40;44.60;;;;;;5051813;28;20264;-56
2023/10/29 09:34:38;;;;;;;0.10;0.10;;;20.40;44.60;;;;;;5032028;28;20211;-55
2023/10/29 09:37:09;;;;;;;0.10;0.10;;;20.40;44.70;;;;;;5032484;28;20641;-56
2023/10/29 09:39:40;;;;;;;0.00;0.00;;;20.40;44.70;;;;;;5031486;28;20648;-55
2023/10/29 09:42:11;;;;;;;0.00;0.00;;;20.40;44.70;;;;;;5031342;28;20234;-57
2023/10/29 09:44:44;;;;;;;0.10;0.10;;;20.30;44.70;;;;;;5049071;28;20195;-54
2023/10/29 09:47:17;;;;;;;0.10;0.10;;;20.30;44.60;;;;;;5051351;28;20203;-56
2023/10/29 09:49:48;;;;;;;0.10;0.10;;;20.30;44.70;;;;;;5052037;28;20211;-57
2023/10/29 09:52:20;;;;;;;0.10;0.10;;;20.30;44.70;;;;;;5051047;28;20199;-57
2023/10/29 09:54:51;;;;;;;0.10;0.10;;;20.20;44.70;;;;;;5031743;28;20199;-57
2023/10/29 09:57:22;;;;;;;0.00;0.00;;;20.20;44.70;;;;;;5044726;28;20500;-56
2023/10/29 09:59:54;;;;;;;0.00;0.00;;;20.20;44.70;;;;;;5031080;28;20196;-57
2023/10/29 10:02:26;;;;;;;0.10;0.10;;;20.20;44.70;;;;;;5037393;28;20706;-57
2023/10/29 10:04:57;;;;;;;0.00;0.00;;;20.20;44.70;;;;;;5051258;28;20192;-57
2023/10/29 10:07:29;;;;;;;0.10;0.10;;;20.10;44.70;;;;;;5050727;28;20215;-55
2023/10/29 10:10:00;;;;;;;0.00;0.00;;;20.10;45.30;;;;;;5033902;28;20223;-55
2023/10/29 10:12:30;;;;;;;0.10;0.10;;;20.10;44.70;;;;;;5050479;28;20199;-55
2023/10/29 10:15:11;;;;;;;0.05;0.05;;;20.10;44.70;;;;;;5031216;28;20836;-56
2023/10/29 10:17:41;;;;;;;0.10;0.10;;;20.00;44.70;;;;;;5043532;28;20222;-48
2023/10/29 10:20:13;;;;;;;0.00;0.00;;;20.00;44.70;;;;;;5069958;28;20222;-55
2023/10/29 10:22:44;;;;;;;0.10;0.10;;;20.00;44.70;;;;;;5065809;28;20609;-54
2023/10/29 10:25:23;;;;;;;0.00;0.00;;;20.00;44.70;;;;;;5049457;28;20235;-57
2023/10/29 10:27:55;;;;;;;0.00;0.00;;;20.00;44.80;;;;;;5048408;28;20222;-55
2023/10/29 10:30:33;;;;;;;0.10;0.10;;;19.90;44.70;;;;;;5048580;28;20206;-47
2023/10/29 10:33:13;;;;;;;0.10;0.10;;;19.90;44.70;;;;;;5050399;28;20191;-52
2023/10/29 10:35:45;;;;;;;0.10;0.10;;;19.90;44.70;;;;;;5050702;28;20194;-53
2023/10/29 10:38:18;;;;;;;0.10;0.10;;;19.90;44.70;;;;;;5057569;28;20234;-56
2023/10/29 10:40:49;;;;;;;0.08;0.08;;;19.80;44.70;;;;;;5031120;28;20196;-51
2023/10/29 10:43:22;;;;;;;0.10;0.10;;;19.80;44.80;;;;;;5031415;28;20636;-55
2023/10/29 10:45:56;;;;;;;0.10;0.10;;;19.80;44.80;;;;;;5031511;28;20197;-51
2023/10/29 10:48:28;;;;;;;0.10;0.10;;;19.80;44.80;;;;;;5043546;28;20207;-52
2023/10/29 10:51:01;;;;;;;0.10;0.10;;;19.80;44.80;;;;;;5045129;28;20222;-56
2023/10/29 10:53:32;;;;;;;0.10;0.10;;;19.80;44.80;;;;;;5044709;28;20203;-55
2023/10/29 10:56:04;;;;;;;0.10;0.10;;;19.70;44.80;;;;;;5030153;28;20657;-53
2023/10/29 10:58:35;;;;;;;0.10;0.10;;;19.70;44.80;;;;;;5030520;28;20244;-53
2023/10/29 11:01:09;;;;;;;0.10;0.10;;;19.70;44.80;;;;;;5070696;28;20677;-55
2023/10/29 11:03:40;;;;;;;0.10;0.10;;;19.70;44.80;;;;;;5053093;28;20194;-53
2023/10/29 11:06:11;;;;;;;0.10;0.10;;;19.70;44.80;;;;;;5051109;28;20206;-56
2023/10/29 11:08:44;;;;;;;0.13;0.13;;;19.60;44.80;;;;;;5051415;28;20318;-58
2023/10/29 11:11:15;;;;;;;0.10;0.10;;;19.60;44.80;;;;;;5051290;28;20191;-57
2023/10/29 11:13:46;;;;;;;0.10;0.10;;;19.60;44.80;;;;;;5052221;28;20218;-57
2023/10/29 11:16:27;;;;;;;0.10;0.10;;;19.60;44.80;;;;;;5054919;28;20204;-56
2023/10/29 11:18:58;;;;;;;0.10;0.10;;;19.50;44.80;;;;;;5054860;28;20219;-58
2023/10/29 11:21:35;;;;;;;0.10;0.10;;;19.50;44.80;;;;;;5055054;28;20211;-57
2023/10/29 11:24:22;;;;;;;0.10;0.10;;;19.50;44.80;;;;;;5055804;28;20247;-57
2023/10/29 11:26:52;;;;;;;0.10;0.10;;;19.50;44.80;;;;;;5054711;28;20725;-58
2023/10/29 11:29:52;;;;;;;0.10;0.10;;;19.50;44.80;;;;;;5054725;28;20207;-57
2023/10/29 11:32:31;;;;;;;0.10;0.10;;;19.50;44.90;;;;;;4992634;28;20225;-58
2023/10/29 11:35:22;;;;;;;0.10;0.10;;;19.40;44.80;;;;;;5044911;28;20659;-52
2023/10/29 11:37:53;;;;;;;0.10;0.10;;;19.40;44.80;;;;;;5055015;28;20675;-57
2023/10/29 11:40:37;;;;;;;0.10;0.10;;;19.40;44.80;;;;;;5054718;28;20286;-56
2023/10/29 11:43:22;;;;;;;0.10;0.10;;;19.40;44.80;;;;;;5054396;28;20262;-58
2023/10/29 11:46:00;;;;;;;0.10;0.10;;;19.30;44.80;;;;;;5054373;28;20199;-56
2023/10/29 11:48:33;;;;;;;0.10;0.10;;;19.30;44.90;;;;;;5053864;28;20633;-55
2023/10/29 11:51:23;;;;;;;0.10;0.10;;;19.30;44.90;;;;;;5054286;28;20196;-57
2023/10/29 11:53:53;;;;;;;0.15;0.15;;;19.30;44.90;;;;;;5054297;28;20254;-58
2023/10/29 11:56:31;;;;;;;0.10;0.10;;;19.20;44.80;;;;;;5054527;28;20199;-58
2023/10/29 11:59:08;;;;;;;0.08;0.08;;;19.20;44.90;;;;;;5054305;28;20219;-56
2023/10/29 12:01:40;;;;;;;0.20;0.20;;;19.20;44.90;;;;;;5054426;28;20230;-57
2023/10/29 12:04:14;;;;;;;0.10;0.10;;;19.20;44.90;;;;;;5054268;28;20239;-57
2023/10/29 12:06:45;;;;;;;0.00;0.00;;;19.20;44.90;;;;;;5053858;28;20238;-58
2023/10/29 12:09:20;;;;;;;0.00;0.00;;;19.20;44.90;;;;;;5053840;28;20212;-58
2023/10/29 12:11:52;;;;;;;0.00;0.00;;;19.10;44.90;;;;;;5054307;28;20269;-57
2023/10/29 12:14:40;;;;;;;0.10;0.10;;;19.10;44.90;;;;;;5054192;28;20651;-56
2023/10/29 12:17:11;;;;;;;0.10;0.10;;;19.10;44.90;;;;;;5055162;28;20667;-58
2023/10/29 12:19:45;;;;;;;0.10;0.10;;;19.10;44.90;;;;;;5054586;28;20239;-58
2023/10/29 12:22:20;;;;;;;0.00;0.00;;;19.10;44.90;;;;;;5054282;28;20298;-55
2023/10/29 12:24:53;;;;;;;0.10;0.10;;;19.10;44.90;;;;;;5068660;23;20223;-53
2023/10/29 12:27:25;;;;;;;0.10;0.10;;;19.00;44.90;;;;;;5052972;28;20216;-52
2023/10/29 12:29:56;;;;;;;0.10;0.10;;;19.00;44.90;;;;;;5056470;28;20214;-49
2023/10/29 12:32:27;;;;;;;0.00;0.00;;;19.00;44.90;;;;;;5053896;28;20206;-55
2023/10/29 12:35:00;;;;;;;0.00;0.00;;;19.00;44.90;;;;;;5053872;28;20199;-52
2023/10/29 12:37:32;;;;;;;0.08;0.08;;;18.90;44.80;;;;;;5053122;28;20219;-54
2023/10/29 12:40:03;;;;;;;0.03;0.03;;;18.90;44.90;;;;;;5053562;28;20203;-55
2023/10/29 12:42:53;;;;;;;0.10;0.10;;;18.90;44.90;;;;;;5053274;28;20227;-55
2023/10/29 12:45:27;;;;;;;0.10;0.10;;;18.90;45.00;;;;;;5053347;28;20192;-55
2023/10/29 12:48:14;;;;;;;0.00;0.00;;;18.90;44.90;;;;;;5053748;28;20223;-50
2023/10/29 12:50:52;;;;;;;0.00;0.00;;;18.90;44.90;;;;;;5053200;28;20672;-54
2023/10/29 12:53:26;;;;;;;0.00;0.00;;;18.90;44.90;;;;;;5053266;28;20207;-54
2023/10/29 12:55:58;;;;;;;0.10;0.10;;;18.80;44.90;;;;;;5052941;28;20678;-55
2023/10/29 12:58:28;;;;;;;0.10;0.10;;;18.80;44.90;;;;;;5052846;28;20215;-55
2023/10/29 13:01:00;;;;;;;0.10;0.10;;;18.80;45.00;;;;;;5053420;28;20203;-51
2023/10/29 13:03:30;;;;;;;0.10;0.10;;;18.80;44.90;;;;;;5053173;28;20734;-54
2023/10/29 13:06:03;;;;;;;0.00;0.00;;;18.80;45.00;;;;;;5053085;28;20596;-54
2023/10/29 13:08:33;;;;;;;0.10;0.10;;;18.80;45.00;;;;;;5052783;28;20629;-56
2023/10/29 13:11:05;;;;;;;0.00;0.00;;;18.80;45.00;;;;;;5052995;28;20283;-56
2023/10/29 13:13:37;;;;;;;0.10;0.10;;;18.70;44.90;;;;;;5053035;28;20207;-50
2023/10/29 13:16:08;;;;;;;0.10;0.10;;;18.70;44.90;;;;;;5052883;28;20503;-57